TAF Text Data
IDs:
Format:
Raw Decoded Include METAR

Data at: 0224 UTC 29 Nov 2020

KORH 282320Z 2900/2924 31010KT P6SM SKC
  FM291400 21006KT P6SM SKC